Time;durP1;ratioP1;P1;durP2;ratioP2;P2;SDS_P1;SDS_P2;PMS_P1;PMS_P2;Temp;Humidity;BMP_temperature;BMP_pressure;BME280_temperature;BME280_humidity;BME280_pressure;Samples;Min_cycle;Max_cycle;Signal;HPM_P1;HPM_P2
2023/03/07 00:01:27;;;;;;;30.75;17.70;;;;;;;;;;5096001;28;20044;-69
2023/03/07 00:03:54;;;;;;;32.28;17.45;;;;;;;;;;5094606;28;20151;-69
2023/03/07 00:06:22;;;;;;;42.63;21.65;;;;;;;;;;5095583;28;20090;-69
2023/03/07 00:08:53;;;;;;;37.95;19.55;;;;;;;;;;5095876;28;20090;-69
2023/03/07 00:11:20;;;;;;;34.85;18.48;;;;;;;;;;5095825;28;20036;-69
2023/03/07 00:13:48;;;;;;;36.80;19.65;;;;;;;;;;5095808;28;20093;-68
2023/03/07 00:16:17;;;;;;;33.90;18.88;;;;;;;;;;5095728;28;20036;-69
2023/03/07 00:18:44;;;;;;;34.05;18.38;;;;;;;;;;5095902;28;20101;-69
2023/03/07 00:21:13;;;;;;;34.05;17.95;;;;;;;;;;5094537;28;20048;-69
2023/03/07 00:23:42;;;;;;;32.00;18.38;;;;;;;;;;5095670;28;20044;-69
2023/03/07 00:26:14;;;;;;;30.88;17.90;;;;;;;;;;5095695;28;20073;-69
2023/03/07 00:28:42;;;;;;;30.17;17.77;;;;;;;;;;5095821;28;20040;-68
2023/03/07 00:31:10;;;;;;;31.00;17.23;;;;;;;;;;5095579;28;20115;-69
2023/03/07 00:33:38;;;;;;;30.52;17.10;;;;;;;;;;5094155;28;20493;-69
2023/03/07 00:36:07;;;;;;;32.25;17.00;;;;;;;;;;5092954;28;20040;-68
2023/03/07 00:38:35;;;;;;;34.88;18.25;;;;;;;;;;5094108;28;20383;-69
2023/03/07 00:41:05;;;;;;;33.75;18.55;;;;;;;;;;5094060;28;20040;-68
2023/03/07 00:43:32;;;;;;;34.75;18.38;;;;;;;;;;5093920;28;20070;-69
2023/03/07 00:46:00;;;;;;;32.60;18.58;;;;;;;;;;5095267;28;20036;-69
2023/03/07 00:48:28;;;;;;;32.95;18.90;;;;;;;;;;5093928;28;20074;-68
2023/03/07 00:50:56;;;;;;;36.85;19.33;;;;;;;;;;5093802;28;20040;-69
2023/03/07 00:53:25;;;;;;;39.50;20.80;;;;;;;;;;5094759;28;20550;-68
2023/03/07 00:56:04;;;;;;;33.55;20.60;;;;;;;;;;5093850;28;20118;-69
2023/03/07 00:58:33;;;;;;;35.38;20.33;;;;;;;;;;5093578;28;20052;-68
2023/03/07 01:01:01;;;;;;;41.38;21.95;;;;;;;;;;5093566;28;20460;-68
2023/03/07 01:03:29;;;;;;;36.30;20.08;;;;;;;;;;5094814;28;20414;-69
2023/03/07 01:05:56;;;;;;;35.17;20.75;;;;;;;;;;5093546;28;20051;-69
2023/03/07 01:08:24;;;;;;;42.58;22.98;;;;;;;;;;5076843;28;20036;-69
2023/03/07 01:10:51;;;;;;;41.35;22.63;;;;;;;;;;5093323;28;20412;-69
2023/03/07 01:13:19;;;;;;;43.33;22.45;;;;;;;;;;5093355;28;20032;-68
2023/03/07 01:15:47;;;;;;;41.28;21.63;;;;;;;;;;5093348;28;20046;-68
2023/03/07 01:18:14;;;;;;;39.20;22.25;;;;;;;;;;5094498;28;20109;-69
2023/03/07 01:20:42;;;;;;;40.65;21.10;;;;;;;;;;5093133;28;20055;-69
2023/03/07 01:23:10;;;;;;;31.50;17.60;;;;;;;;;;5093123;28;20641;-68
2023/03/07 01:25:38;;;;;;;29.02;16.38;;;;;;;;;;5093139;28;20048;-69
2023/03/07 01:28:06;;;;;;;25.40;15.32;;;;;;;;;;5092889;28;20040;-69
2023/03/07 01:30:34;;;;;;;31.65;17.85;;;;;;;;;;5092953;28;20390;-69
2023/03/07 01:33:02;;;;;;;30.80;17.52;;;;;;;;;;5092966;28;20050;-69
2023/03/07 01:35:30;;;;;;;31.42;17.02;;;;;;;;;;5092991;28;20554;-69
2023/03/07 01:37:57;;;;;;;26.35;15.13;;;;;;;;;;5093023;28;20133;-68
2023/03/07 01:40:25;;;;;;;26.38;15.77;;;;;;;;;;5092831;28;20040;-68
2023/03/07 01:42:53;;;;;;;28.55;16.55;;;;;;;;;;5094095;28;20493;-68
2023/03/07 01:45:35;;;;;;;27.42;16.25;;;;;;;;;;5092760;28;20046;-69
2023/03/07 01:48:03;;;;;;;27.52;15.32;;;;;;;;;;5094182;28;20040;-68
2023/03/07 01:50:31;;;;;;;27.40;15.60;;;;;;;;;;5092661;28;20052;-69
2023/03/07 01:53:00;;;;;;;27.00;14.95;;;;;;;;;;5092800;28;20047;-69
2023/03/07 01:55:31;;;;;;;27.95;15.05;;;;;;;;;;5092714;28;20052;-70
2023/03/07 01:58:12;;;;;;;25.83;14.27;;;;;;;;;;5092830;28;20421;-71
2023/03/07 02:00:41;;;;;;;29.67;15.57;;;;;;;;;;5092594;28;20044;-68
2023/03/07 02:03:12;;;;;;;27.30;15.20;;;;;;;;;;5092518;28;20039;-67
2023/03/07 02:05:56;;;;;;;28.38;14.30;;;;;;;;;;5076065;28;20048;-68
2023/03/07 02:08:25;;;;;;;29.02;14.48;;;;;;;;;;5092436;28;20040;-69
2023/03/07 02:10:53;;;;;;;28.05;14.60;;;;;;;;;;5092360;28;20070;-69
2023/03/07 02:13:20;;;;;;;30.17;15.40;;;;;;;;;;5092186;28;20052;-67
2023/03/07 02:15:49;;;;;;;24.75;13.98;;;;;;;;;;5092458;28;20093;-69
2023/03/07 02:18:23;;;;;;;30.38;14.52;;;;;;;;;;5091994;28;20051;-69
2023/03/07 02:20:50;;;;;;;28.98;14.68;;;;;;;;;;5092251;28;20070;-67
2023/03/07 02:23:44;;;;;;;26.98;13.88;;;;;;;;;;5092094;28;20490;-68
2023/03/07 02:26:21;;;;;;;30.17;14.48;;;;;;;;;;5077645;28;20547;-68
2023/03/07 02:28:48;;;;;;;29.05;15.55;;;;;;;;;;5091971;28;20044;-68
2023/03/07 02:31:16;;;;;;;28.27;14.38;;;;;;;;;;5091857;28;20074;-67
2023/03/07 02:33:43;;;;;;;24.98;13.25;;;;;;;;;;5091675;28;20105;-67
2023/03/07 02:36:17;;;;;;;24.83;13.98;;;;;;;;;;5091934;28;20445;-67
2023/03/07 02:38:54;;;;;;;23.98;13.55;;;;;;;;;;5091942;28;20046;-68
2023/03/07 02:41:25;;;;;;;27.38;14.10;;;;;;;;;;5091737;28;20050;-68
2023/03/07 02:43:53;;;;;;;25.45;14.15;;;;;;;;;;5093043;28;20093;-68
2023/03/07 02:46:20;;;;;;;27.42;14.57;;;;;;;;;;5091687;28;20071;-68
2023/03/07 02:48:48;;;;;;;27.83;14.15;;;;;;;;;;5091800;28;20442;-68
2023/03/07 02:51:17;;;;;;;26.40;14.60;;;;;;;;;;5091639;28;20068;-68
2023/03/07 02:53:46;;;;;;;24.27;13.82;;;;;;;;;;5091736;28;20401;-68
2023/03/07 02:56:13;;;;;;;25.70;13.43;;;;;;;;;;5074674;28;20545;-68
2023/03/07 02:58:41;;;;;;;24.85;13.77;;;;;;;;;;5092110;28;20054;-68
2023/03/07 03:01:09;;;;;;;25.23;14.13;;;;;;;;;;5091656;28;20114;-68
2023/03/07 03:03:37;;;;;;;25.75;13.90;;;;;;;;;;5091449;28;20048;-68
2023/03/07 03:06:04;;;;;;;23.67;13.20;;;;;;;;;;5092630;28;20066;-68
2023/03/07 03:08:32;;;;;;;27.25;14.55;;;;;;;;;;5091337;28;20081;-68
2023/03/07 03:10:59;;;;;;;25.05;14.00;;;;;;;;;;5091489;28;20490;-68
2023/03/07 03:13:28;;;;;;;24.15;13.88;;;;;;;;;;5091461;28;20055;-68
2023/03/07 03:15:56;;;;;;;27.58;14.77;;;;;;;;;;5091229;28;20040;-68
2023/03/07 03:18:24;;;;;;;29.50;18.15;;;;;;;;;;5091121;28;20055;-68
2023/03/07 03:20:51;;;;;;;41.90;23.23;;;;;;;;;;5091172;28;20521;-68
2023/03/07 03:23:19;;;;;;;49.13;27.98;;;;;;;;;;5091148;28;20206;-68
2023/03/07 03:25:56;;;;;;;55.00;30.05;;;;;;;;;;5091500;28;20667;-67
2023/03/07 03:28:23;;;;;;;51.70;29.23;;;;;;;;;;5091117;28;20063;-68
2023/03/07 03:30:58;;;;;;;45.97;28.42;;;;;;;;;;5091063;28;20036;-68
2023/03/07 03:33:28;;;;;;;47.75;26.90;;;;;;;;;;5091358;28;20079;-68
2023/03/07 03:35:56;;;;;;;46.17;25.27;;;;;;;;;;5091110;28;20032;-68
2023/03/07 03:38:25;;;;;;;33.38;19.42;;;;;;;;;;5091227;28;20044;-68
2023/03/07 03:40:54;;;;;;;36.50;19.23;;;;;;;;;;5091055;28;20044;-68
2023/03/07 03:43:22;;;;;;;32.22;17.73;;;;;;;;;;5090967;28;20494;-68
2023/03/07 03:45:54;;;;;;;29.60;15.90;;;;;;;;;;5092389;28;20529;-68
2023/03/07 03:48:23;;;;;;;27.90;15.65;;;;;;;;;;5089354;28;20054;-68
2023/03/07 03:50:50;;;;;;;30.52;16.75;;;;;;;;;;5070804;28;20383;-68
2023/03/07 03:53:18;;;;;;;34.72;16.95;;;;;;;;;;5070750;28;20075;-68
2023/03/07 03:55:45;;;;;;;29.83;15.88;;;;;;;;;;5070842;28;20045;-68
2023/03/07 03:58:13;;;;;;;25.48;14.55;;;;;;;;;;5070545;28;20059;-68
2023/03/07 04:00:40;;;;;;;27.88;15.30;;;;;;;;;;5072018;28;20044;-68
2023/03/07 04:03:08;;;;;;;26.42;13.93;;;;;;;;;;5071901;28;20052;-68
2023/03/07 04:05:35;;;;;;;27.42;13.82;;;;;;;;;;5070606;28;20082;-68
2023/03/07 04:08:03;;;;;;;27.30;13.45;;;;;;;;;;5070629;28;20055;-68
2023/03/07 04:10:31;;;;;;;23.38;14.15;;;;;;;;;;5073146;28;20094;-68
2023/03/07 04:12:58;;;;;;;25.50;14.13;;;;;;;;;;5074521;28;20430;-68
2023/03/07 04:15:26;;;;;;;23.83;14.40;;;;;;;;;;5074143;28;20090;-68
2023/03/07 04:17:54;;;;;;;25.80;14.30;;;;;;;;;;5074264;28;20048;-68
2023/03/07 04:20:22;;;;;;;26.73;14.10;;;;;;;;;;5075192;28;20566;-68
2023/03/07 04:22:49;;;;;;;25.25;13.63;;;;;;;;;;5075145;28;20506;-68
2023/03/07 04:25:18;;;;;;;23.80;13.82;;;;;;;;;;5075258;28;20029;-68
2023/03/07 04:27:45;;;;;;;23.70;13.60;;;;;;;;;;5073899;28;20059;-68
2023/03/07 04:30:13;;;;;;;27.20;14.85;;;;;;;;;;5074066;28;20082;-68
2023/03/07 04:32:41;;;;;;;29.20;16.02;;;;;;;;;;5073702;28;20045;-68
2023/03/07 04:35:09;;;;;;;29.63;17.10;;;;;;;;;;5073732;28;20090;-68
2023/03/07 04:37:36;;;;;;;30.30;15.07;;;;;;;;;;5075174;28;20039;-68
2023/03/07 04:40:04;;;;;;;29.52;15.18;;;;;;;;;;5075090;28;20040;-68
2023/03/07 04:42:31;;;;;;;34.20;15.93;;;;;;;;;;5073608;28;20048;-68
2023/03/07 04:44:59;;;;;;;35.03;17.50;;;;;;;;;;5057171;28;20072;-68
2023/03/07 04:47:27;;;;;;;32.85;16.92;;;;;;;;;;5073767;28;20453;-68
2023/03/07 04:49:54;;;;;;;29.15;15.75;;;;;;;;;;5077685;28;20086;-68
2023/03/07 04:52:22;;;;;;;26.83;14.30;;;;;;;;;;5094858;28;20039;-68
2023/03/07 04:54:49;;;;;;;28.50;15.00;;;;;;;;;;5093777;28;20131;-68
2023/03/07 04:57:17;;;;;;;27.90;15.20;;;;;;;;;;5093668;28;20105;-68
2023/03/07 04:59:44;;;;;;;28.67;16.02;;;;;;;;;;5095038;28;20044;-68
2023/03/07 05:02:13;;;;;;;29.15;15.50;;;;;;;;;;5093523;28;20623;-68
2023/03/07 05:04:41;;;;;;;26.13;15.32;;;;;;;;;;5093452;28;20566;-67
2023/03/07 05:07:09;;;;;;;29.67;16.77;;;;;;;;;;5093564;28;20044;-67
2023/03/07 05:09:37;;;;;;;33.50;17.73;;;;;;;;;;5093468;28;20040;-67
2023/03/07 05:12:04;;;;;;;27.23;16.17;;;;;;;;;;5093337;28;20425;-67
2023/03/07 05:14:32;;;;;;;27.83;15.70;;;;;;;;;;5093395;28;20068;-67
2023/03/07 05:16:59;;;;;;;28.65;15.98;;;;;;;;;;5076623;28;20043;-67
2023/03/07 05:19:28;;;;;;;25.55;14.55;;;;;;;;;;5093368;28;20043;-67
2023/03/07 05:21:56;;;;;;;29.27;15.88;;;;;;;;;;5075569;28;20044;-67
2023/03/07 05:24:23;;;;;;;38.30;18.13;;;;;;;;;;5093173;28;20051;-67
2023/03/07 05:26:51;;;;;;;54.53;24.13;;;;;;;;;;5076478;28;20116;-68
2023/03/07 05:29:18;;;;;;;48.38;24.17;;;;;;;;;;5092139;28;20086;-68
2023/03/07 05:31:46;;;;;;;47.35;24.10;;;;;;;;;;5092485;28;20154;-68
2023/03/07 05:34:14;;;;;;;52.70;24.40;;;;;;;;;;5092026;28;20097;-68
2023/03/07 05:36:43;;;;;;;53.72;25.20;;;;;;;;;;5092778;28;20077;-69
2023/03/07 05:39:11;;;;;;;44.22;22.80;;;;;;;;;;5093891;28;20063;-69
2023/03/07 05:41:38;;;;;;;36.97;22.25;;;;;;;;;;5092755;28;20039;-68
2023/03/07 05:44:06;;;;;;;38.13;20.00;;;;;;;;;;5092704;28;20040;-68
2023/03/07 05:46:33;;;;;;;39.25;20.63;;;;;;;;;;5092784;28;20071;-68
2023/03/07 05:49:03;;;;;;;33.00;19.45;;;;;;;;;;5092405;28;20093;-68
2023/03/07 05:51:30;;;;;;;40.28;21.90;;;;;;;;;;5092575;28;20040;-69
2023/03/07 05:53:58;;;;;;;40.42;19.00;;;;;;;;;;5092653;28;20047;-69
2023/03/07 05:56:27;;;;;;;32.42;18.55;;;;;;;;;;5109676;28;20050;-69
2023/03/07 05:58:56;;;;;;;32.65;18.60;;;;;;;;;;5093791;28;20509;-68
2023/03/07 06:01:23;;;;;;;27.80;17.35;;;;;;;;;;5092596;28;20071;-68
2023/03/07 06:03:50;;;;;;;30.25;18.42;;;;;;;;;;5093895;28;20057;-68
2023/03/07 06:06:19;;;;;;;28.92;19.90;;;;;;;;;;5091801;28;20044;-68
2023/03/07 06:08:46;;;;;;;30.48;22.05;;;;;;;;;;5092356;28;20040;-68
2023/03/07 06:11:16;;;;;;;32.47;23.10;;;;;;;;;;5092502;28;20044;-68
2023/03/07 06:13:43;;;;;;;34.50;23.23;;;;;;;;;;5092440;28;20048;-68
2023/03/07 06:16:10;;;;;;;33.05;24.17;;;;;;;;;;5093641;28;20105;-68
2023/03/07 06:18:40;;;;;;;40.30;24.90;;;;;;;;;;5092371;28;20117;-69
2023/03/07 06:21:08;;;;;;;37.15;24.75;;;;;;;;;;5093431;28;20043;-67
2023/03/07 06:23:41;;;;;;;32.05;24.60;;;;;;;;;;5092316;28;20051;-67
2023/03/07 06:26:12;;;;;;;33.90;25.10;;;;;;;;;;5092173;28;20101;-67
2023/03/07 06:28:41;;;;;;;34.70;25.88;;;;;;;;;;5092248;28;20047;-67
2023/03/07 06:31:11;;;;;;;43.67;30.15;;;;;;;;;;5092229;28;20071;-67
2023/03/07 06:33:39;;;;;;;43.47;30.73;;;;;;;;;;5109154;28;20093;-67
2023/03/07 06:36:07;;;;;;;40.85;30.38;;;;;;;;;;5108918;28;20560;-68
2023/03/07 06:38:36;;;;;;;50.28;33.00;;;;;;;;;;5092016;28;20675;-67
2023/03/07 06:41:04;;;;;;;44.80;31.45;;;;;;;;;;5108783;28;20048;-69
2023/03/07 06:43:32;;;;;;;45.67;30.27;;;;;;;;;;5093284;28;20489;-69
2023/03/07 06:46:00;;;;;;;44.00;30.88;;;;;;;;;;5091871;28;20081;-67
2023/03/07 06:48:33;;;;;;;36.42;29.52;;;;;;;;;;5091802;28;20038;-67
2023/03/07 06:51:07;;;;;;;39.72;30.23;;;;;;;;;;5091654;28;20040;-67
2023/03/07 06:53:36;;;;;;;36.55;28.30;;;;;;;;;;5108756;28;20050;-67
2023/03/07 06:56:04;;;;;;;38.28;29.33;;;;;;;;;;5091869;28;20393;-67
2023/03/07 06:58:33;;;;;;;37.97;29.52;;;;;;;;;;5091795;28;20048;-67
2023/03/07 07:01:01;;;;;;;32.67;27.02;;;;;;;;;;5091588;28;20040;-67
2023/03/07 07:03:31;;;;;;;35.05;27.38;;;;;;;;;;5091654;28;20097;-67
2023/03/07 07:05:58;;;;;;;32.17;27.15;;;;;;;;;;5108436;28;20040;-66
2023/03/07 07:08:26;;;;;;;32.38;25.92;;;;;;;;;;5075030;28;20493;-67
2023/03/07 07:10:58;;;;;;;31.20;22.85;;;;;;;;;;5091467;28;20043;-67
2023/03/07 07:13:26;;;;;;;26.65;20.70;;;;;;;;;;5091480;28;20093;-67
2023/03/07 07:15:54;;;;;;;27.55;22.75;;;;;;;;;;5093058;28;20044;-67
2023/03/07 07:18:23;;;;;;;32.92;24.20;;;;;;;;;;5091502;28;20036;-67
2023/03/07 07:20:55;;;;;;;31.33;22.17;;;;;;;;;;5091404;28;20052;-67
2023/03/07 07:23:25;;;;;;;29.52;20.50;;;;;;;;;;5091424;28;20131;-67
2023/03/07 07:25:53;;;;;;;37.13;27.58;;;;;;;;;;5092700;28;20028;-67
2023/03/07 07:28:21;;;;;;;36.53;24.58;;;;;;;;;;5091470;28;20068;-67
2023/03/07 07:30:48;;;;;;;27.33;21.35;;;;;;;;;;5091412;28;20127;-67
2023/03/07 07:33:16;;;;;;;36.17;23.55;;;;;;;;;;5091349;28;20490;-68
2023/03/07 07:35:48;;;;;;;34.20;23.75;;;;;;;;;;5091328;28;20494;-67
2023/03/07 07:38:15;;;;;;;29.75;20.00;;;;;;;;;;5091435;28;20052;-66
2023/03/07 07:40:44;;;;;;;31.25;18.70;;;;;;;;;;5091256;28;20040;-68
2023/03/07 07:43:16;;;;;;;25.05;17.13;;;;;;;;;;5091298;28;20048;-67
2023/03/07 07:45:54;;;;;;;25.70;18.00;;;;;;;;;;5094779;28;20048;-67
2023/03/07 07:48:22;;;;;;;27.27;17.77;;;;;;;;;;5095110;28;20551;-68
2023/03/07 07:50:50;;;;;;;21.27;15.25;;;;;;;;;;5095050;28;20044;-68
2023/03/07 07:53:19;;;;;;;21.92;15.35;;;;;;;;;;5094834;28;20089;-67
2023/03/07 07:55:48;;;;;;;27.23;17.50;;;;;;;;;;5095075;28;20436;-67
2023/03/07 07:58:16;;;;;;;24.73;15.18;;;;;;;;;;5094827;28;20048;-68
2023/03/07 08:00:45;;;;;;;20.33;14.27;;;;;;;;;;5094886;28;20065;-67
2023/03/07 08:03:12;;;;;;;18.85;13.57;;;;;;;;;;5095773;28;20047;-68
2023/03/07 08:05:44;;;;;;;18.02;12.20;;;;;;;;;;5095778;28;20036;-67
2023/03/07 08:08:11;;;;;;;21.15;13.15;;;;;;;;;;5095633;28;20044;-68
2023/03/07 08:10:41;;;;;;;21.42;13.52;;;;;;;;;;5096035;28;20032;-68
2023/03/07 08:13:13;;;;;;;24.70;14.13;;;;;;;;;;5095824;28;20478;-67
2023/03/07 08:15:41;;;;;;;19.85;13.55;;;;;;;;;;5095860;28;20462;-67
2023/03/07 08:18:11;;;;;;;20.30;12.93;;;;;;;;;;5095862;28;20595;-68
2023/03/07 08:20:40;;;;;;;19.88;13.52;;;;;;;;;;5095757;28;20073;-67
2023/03/07 08:23:07;;;;;;;22.15;12.23;;;;;;;;;;5095450;28;20040;-67
2023/03/07 08:25:35;;;;;;;32.50;12.73;;;;;;;;;;5094973;28;20486;-68
2023/03/07 08:28:04;;;;;;;27.88;12.30;;;;;;;;;;5095125;28;20071;-67
2023/03/07 08:30:33;;;;;;;18.05;11.30;;;;;;;;;;5095511;28;20036;-68
2023/03/07 08:33:00;;;;;;;19.25;11.10;;;;;;;;;;5095506;28;20091;-68
2023/03/07 08:35:28;;;;;;;16.40;11.18;;;;;;;;;;5095381;28;20047;-68
2023/03/07 08:37:59;;;;;;;19.58;12.38;;;;;;;;;;5095401;28;20560;-67
2023/03/07 08:40:27;;;;;;;25.85;12.73;;;;;;;;;;5095438;28;20036;-68
2023/03/07 08:42:55;;;;;;;16.05;10.45;;;;;;;;;;5095209;28;20051;-68
2023/03/07 08:45:23;;;;;;;17.65;10.85;;;;;;;;;;5095338;28;20067;-68
2023/03/07 08:47:57;;;;;;;18.00;11.02;;;;;;;;;;5095651;28;20738;-67
2023/03/07 08:50:25;;;;;;;14.82;10.07;;;;;;;;;;5095238;28;20036;-67
2023/03/07 08:52:53;;;;;;;13.90;9.50;;;;;;;;;;5095176;28;20048;-69
2023/03/07 08:55:20;;;;;;;16.73;10.32;;;;;;;;;;5094627;28;20546;-68
2023/03/07 08:57:48;;;;;;;14.65;9.80;;;;;;;;;;5094454;28;20501;-71
2023/03/07 09:00:16;;;;;;;20.77;10.55;;;;;;;;;;5095215;28;20033;-69
2023/03/07 09:02:44;;;;;;;18.55;11.55;;;;;;;;;;5095024;28;20097;-68
2023/03/07 09:05:11;;;;;;;16.98;9.68;;;;;;;;;;5095047;28;20107;-68
2023/03/07 09:07:39;;;;;;;18.40;10.18;;;;;;;;;;5094769;28;20044;-68
2023/03/07 09:10:07;;;;;;;12.20;8.00;;;;;;;;;;5095371;28;20043;-72
2023/03/07 09:12:34;;;;;;;12.43;8.43;;;;;;;;;;5094601;28;20381;-68
2023/03/07 09:15:02;;;;;;;11.55;7.80;;;;;;;;;;5094677;28;20047;-69
2023/03/07 09:17:30;;;;;;;13.93;7.75;;;;;;;;;;5094587;28;20085;-68
2023/03/07 09:19:57;;;;;;;11.38;7.13;;;;;;;;;;5094732;28;20051;-68
2023/03/07 09:22:24;;;;;;;13.57;7.20;;;;;;;;;;5094489;28;20044;-69
2023/03/07 09:24:52;;;;;;;10.77;6.85;;;;;;;;;;5094355;28;20043;-69
2023/03/07 09:27:19;;;;;;;9.90;6.85;;;;;;;;;;5093167;28;20078;-68
2023/03/07 09:29:47;;;;;;;11.38;6.05;;;;;;;;;;5094389;28;20455;-68
2023/03/07 09:32:14;;;;;;;11.20;6.72;;;;;;;;;;5094158;28;20082;-69
2023/03/07 09:34:41;;;;;;;9.98;6.80;;;;;;;;;;5094107;28;20051;-68
2023/03/07 09:37:10;;;;;;;9.88;5.70;;;;;;;;;;5094255;28;20068;-70
2023/03/07 09:39:37;;;;;;;11.15;6.82;;;;;;;;;;5094195;28;20040;-69
2023/03/07 09:42:05;;;;;;;10.80;6.28;;;;;;;;;;5094408;28;20158;-68
2023/03/07 09:44:41;;;;;;;10.80;6.38;;;;;;;;;;5094288;28;20048;-67
2023/03/07 09:47:41;;;;;;;7.72;5.00;;;;;;;;;;5093155;28;20044;-68
2023/03/07 09:50:14;;;;;;;7.47;5.07;;;;;;;;;;5094215;28;20493;-68
2023/03/07 09:52:42;;;;;;;9.82;5.88;;;;;;;;;;5093983;28;20040;-68
2023/03/07 09:55:15;;;;;;;8.15;4.97;;;;;;;;;;5094074;28;20101;-68
2023/03/07 09:57:48;;;;;;;7.60;5.30;;;;;;;;;;5093724;28;20590;-68
2023/03/07 10:00:19;;;;;;;11.15;5.90;;;;;;;;;;5094253;28;20047;-68
2023/03/07 10:02:50;;;;;;;8.48;5.22;;;;;;;;;;5093807;28;20047;-68
2023/03/07 10:05:18;;;;;;;8.98;5.22;;;;;;;;;;5093841;28;20044;-68
2023/03/07 10:07:45;;;;;;;9.15;5.53;;;;;;;;;;5093446;28;20098;-68
2023/03/07 10:10:13;;;;;;;9.57;5.22;;;;;;;;;;5093746;28;20044;-67
2023/03/07 10:12:47;;;;;;;7.07;5.03;;;;;;;;;;5093618;28;20063;-68
2023/03/07 10:15:17;;;;;;;10.20;4.95;;;;;;;;;;5093628;28;20475;-68
2023/03/07 10:18:11;;;;;;;7.68;4.75;;;;;;;;;;5093405;28;20044;-68
2023/03/07 10:20:57;;;;;;;10.68;5.32;;;;;;;;;;5077286;28;20056;-68
2023/03/07 10:23:43;;;;;;;10.52;5.25;;;;;;;;;;5093304;28;20058;-67
2023/03/07 10:26:14;;;;;;;8.00;4.93;;;;;;;;;;5093323;28;20554;-68
2023/03/07 10:28:42;;;;;;;6.45;4.43;;;;;;;;;;5093364;28;20051;-68
2023/03/07 10:31:14;;;;;;;8.50;5.32;;;;;;;;;;5093340;28;20432;-68
2023/03/07 10:33:44;;;;;;;5.45;3.80;;;;;;;;;;5093340;28;20476;-68
2023/03/07 10:36:22;;;;;;;9.45;5.80;;;;;;;;;;5093229;28;20044;-68
2023/03/07 10:39:04;;;;;;;8.27;5.70;;;;;;;;;;5093268;28;20040;-68
2023/03/07 10:41:31;;;;;;;7.43;4.45;;;;;;;;;;5091823;28;20036;-68
2023/03/07 10:43:59;;;;;;;7.28;4.30;;;;;;;;;;5091647;28;20040;-68
2023/03/07 10:46:28;;;;;;;8.18;5.03;;;;;;;;;;5093053;28;20044;-68
2023/03/07 10:49:17;;;;;;;11.27;5.15;;;;;;;;;;5093160;28;20479;-68
2023/03/07 10:52:04;;;;;;;6.13;4.30;;;;;;;;;;5093019;28;20044;-67
2023/03/07 10:54:32;;;;;;;5.50;3.67;;;;;;;;;;5093034;28;20066;-68
2023/03/07 10:57:11;;;;;;;9.23;4.47;;;;;;;;;;5092987;28;20064;-68
2023/03/07 10:59:42;;;;;;;7.70;4.55;;;;;;;;;;5092783;28;20056;-68
2023/03/07 11:02:28;;;;;;;9.82;4.32;;;;;;;;;;5092743;28;20111;-68
2023/03/07 11:04:56;;;;;;;5.88;3.75;;;;;;;;;;5092776;28;20055;-68
2023/03/07 11:07:31;;;;;;;12.55;5.15;;;;;;;;;;5092724;28;20062;-68
2023/03/07 11:09:59;;;;;;;7.80;5.45;;;;;;;;;;5092680;28;20044;-68
2023/03/07 11:12:28;;;;;;;6.60;5.03;;;;;;;;;;5092539;28;20044;-68
2023/03/07 11:15:09;;;;;;;9.73;5.15;;;;;;;;;;5092612;28;20068;-69
2023/03/07 11:17:44;;;;;;;8.80;4.13;;;;;;;;;;5092719;28;20040;-69
2023/03/07 11:20:33;;;;;;;7.53;4.65;;;;;;;;;;5091978;28;20060;-68
2023/03/07 11:23:19;;;;;;;30.80;20.48;;;;;;;;;;5088937;28;20401;-68
2023/03/07 11:25:46;;;;;;;10.50;6.00;;;;;;;;;;5092616;28;20123;-68
2023/03/07 11:28:23;;;;;;;9.38;5.38;;;;;;;;;;5092599;28;20036;-68
2023/03/07 11:31:00;;;;;;;6.40;4.07;;;;;;;;;;5092842;28;20521;-68
2023/03/07 11:33:32;;;;;;;8.02;4.05;;;;;;;;;;5092550;28;20071;-68
2023/03/07 11:36:05;;;;;;;5.70;4.18;;;;;;;;;;5092572;28;20036;-68
2023/03/07 11:38:48;;;;;;;7.53;3.72;;;;;;;;;;5091225;28;20511;-69
2023/03/07 11:41:18;;;;;;;7.78;4.03;;;;;;;;;;5091302;28;20516;-68
2023/03/07 11:43:49;;;;;;;6.18;3.63;;;;;;;;;;5092378;28;20043;-69
2023/03/07 11:46:40;;;;;;;5.97;3.83;;;;;;;;;;5092479;28;20115;-67
2023/03/07 11:49:07;;;;;;;8.65;4.47;;;;;;;;;;5082232;28;20091;-69
2023/03/07 11:51:40;;;;;;;9.18;4.53;;;;;;;;;;5092348;28;20070;-68
2023/03/07 11:54:23;;;;;;;8.57;3.88;;;;;;;;;;5092347;28;20040;-69
2023/03/07 11:56:52;;;;;;;10.18;4.47;;;;;;;;;;5092661;28;20045;-68
2023/03/07 11:59:29;;;;;;;9.15;4.75;;;;;;;;;;5107647;28;20506;-68
2023/03/07 12:01:58;;;;;;;5.18;3.17;;;;;;;;;;5092203;28;20455;-70
2023/03/07 12:04:38;;;;;;;6.18;3.80;;;;;;;;;;5092123;28;20044;-69
2023/03/07 12:07:15;;;;;;;8.02;4.10;;;;;;;;;;5092017;28;20035;-68
2023/03/07 12:09:51;;;;;;;9.70;4.00;;;;;;;;;;5092404;28;20040;-69
2023/03/07 12:12:37;;;;;;;8.15;3.90;;;;;;;;;;5092023;28;20036;-69
2023/03/07 12:15:04;;;;;;;5.70;3.90;;;;;;;;;;5091300;28;20043;-69
2023/03/07 12:17:52;;;;;;;9.07;4.22;;;;;;;;;;5091863;28;20077;-68
2023/03/07 12:20:24;;;;;;;7.30;4.47;;;;;;;;;;5090813;28;20050;-68
2023/03/07 12:22:51;;;;;;;5.82;4.05;;;;;;;;;;5091983;28;20055;-68
2023/03/07 12:25:23;;;;;;;7.10;3.83;;;;;;;;;;5091932;28;20047;-68
2023/03/07 12:28:05;;;;;;;6.38;4.20;;;;;;;;;;5091875;28;20482;-68
2023/03/07 12:30:33;;;;;;;6.93;3.70;;;;;;;;;;5092993;28;20072;-68
2023/03/07 12:33:00;;;;;;;6.03;4.13;;;;;;;;;;5094301;28;20485;-68
2023/03/07 12:35:46;;;;;;;7.55;3.70;;;;;;;;;;5095648;28;20435;-68
2023/03/07 12:38:36;;;;;;;5.68;3.45;;;;;;;;;;5095497;28;20119;-68
2023/03/07 12:41:09;;;;;;;5.05;3.28;;;;;;;;;;5095372;28;20428;-67
2023/03/07 12:43:38;;;;;;;7.55;3.80;;;;;;;;;;5095177;28;20131;-67
2023/03/07 12:46:29;;;;;;;3.90;3.03;;;;;;;;;;5095263;28;20066;-67
2023/03/07 12:49:00;;;;;;;5.93;3.10;;;;;;;;;;5095197;28;20525;-69
2023/03/07 12:51:31;;;;;;;6.95;3.40;;;;;;;;;;5095248;28;20044;-67
2023/03/07 12:53:58;;;;;;;7.18;3.40;;;;;;;;;;5095009;28;20044;-67
2023/03/07 12:56:35;;;;;;;5.63;3.20;;;;;;;;;;5095282;28;20032;-67
2023/03/07 12:59:11;;;;;;;5.32;3.60;;;;;;;;;;5094984;28;20553;-67
2023/03/07 13:01:39;;;;;;;7.72;3.72;;;;;;;;;;5095059;28;20036;-68
2023/03/07 13:04:17;;;;;;;8.63;3.75;;;;;;;;;;5093750;28;20093;-68
2023/03/07 13:06:46;;;;;;;6.70;3.58;;;;;;;;;;5094053;28;20417;-68
2023/03/07 13:09:19;;;;;;;7.47;3.55;;;;;;;;;;5094917;28;20066;-67
2023/03/07 13:12:05;;;;;;;6.68;3.60;;;;;;;;;;5094648;28;20043;-68
2023/03/07 13:14:48;;;;;;;5.28;3.17;;;;;;;;;;5094803;28;20397;-68
2023/03/07 13:17:24;;;;;;;6.18;3.20;;;;;;;;;;5094806;28;20040;-68
2023/03/07 13:19:53;;;;;;;5.53;3.25;;;;;;;;;;5093256;28;20037;-68
2023/03/07 13:22:20;;;;;;;7.57;3.45;;;;;;;;;;5094752;28;20036;-68
2023/03/07 13:24:49;;;;;;;5.57;3.33;;;;;;;;;;5094412;28;20044;-68
2023/03/07 13:27:17;;;;;;;5.30;3.30;;;;;;;;;;5094708;28;20040;-68
2023/03/07 13:30:04;;;;;;;8.20;3.38;;;;;;;;;;5093364;28;20047;-68
2023/03/07 13:32:50;;;;;;;6.80;3.65;;;;;;;;;;5094863;28;20067;-68
2023/03/07 13:35:23;;;;;;;7.57;3.65;;;;;;;;;;5093265;28;20518;-68
2023/03/07 13:37:52;;;;;;;7.00;3.20;;;;;;;;;;5094605;28;20490;-68
2023/03/07 13:40:35;;;;;;;5.43;3.13;;;;;;;;;;5094362;28;20090;-68
2023/03/07 13:43:04;;;;;;;5.63;3.05;;;;;;;;;;5093647;28;20405;-68
2023/03/07 13:45:38;;;;;;;7.50;3.45;;;;;;;;;;5094263;28;20494;-68
2023/03/07 13:48:14;;;;;;;3.42;2.50;;;;;;;;;;5094221;28;20047;-68
2023/03/07 13:50:41;;;;;;;5.03;2.95;;;;;;;;;;5094471;28;20123;-68
2023/03/07 13:53:16;;;;;;;6.93;2.80;;;;;;;;;;5094209;28;20040;-68
2023/03/07 13:55:49;;;;;;;5.15;2.95;;;;;;;;;;5092724;28;20541;-68
2023/03/07 13:58:17;;;;;;;5.28;2.70;;;;;;;;;;5094063;28;20402;-69
2023/03/07 14:00:50;;;;;;;8.25;3.58;;;;;;;;;;5092715;28;20043;-68
2023/03/07 14:03:24;;;;;;;4.18;2.90;;;;;;;;;;5093834;28;20484;-68
2023/03/07 14:05:55;;;;;;;10.00;3.30;;;;;;;;;;5093872;28;20482;-68
2023/03/07 14:08:25;;;;;;;7.90;3.25;;;;;;;;;;5093929;28;20051;-68
2023/03/07 14:10:53;;;;;;;7.50;3.00;;;;;;;;;;5093775;28;20119;-68
2023/03/07 14:13:20;;;;;;;5.47;2.72;;;;;;;;;;5093577;28;20493;-68
2023/03/07 14:16:00;;;;;;;6.78;3.50;;;;;;;;;;5091638;28;20050;-68
2023/03/07 14:18:30;;;;;;;6.18;3.40;;;;;;;;;;5090764;28;20051;-68
2023/03/07 14:21:04;;;;;;;7.75;4.05;;;;;;;;;;5093050;28;20513;-67
2023/03/07 14:23:34;;;;;;;7.47;4.00;;;;;;;;;;5093247;28;20075;-67
2023/03/07 14:26:14;;;;;;;6.72;4.20;;;;;;;;;;5093013;28;20040;-67
2023/03/07 14:28:50;;;;;;;9.35;4.60;;;;;;;;;;5092760;28;20043;-67
2023/03/07 14:31:25;;;;;;;7.00;4.32;;;;;;;;;;5093330;28;20040;-67
2023/03/07 14:33:53;;;;;;;9.77;4.55;;;;;;;;;;5093139;28;20549;-67
2023/03/07 14:36:22;;;;;;;8.77;4.55;;;;;;;;;;5092046;28;20089;-67
2023/03/07 14:38:51;;;;;;;12.95;4.90;;;;;;;;;;5091676;28;20044;-67
2023/03/07 14:41:28;;;;;;;8.57;4.88;;;;;;;;;;5093235;28;20575;-68
2023/03/07 14:44:07;;;;;;;9.65;4.65;;;;;;;;;;5092889;28;20508;-67
2023/03/07 14:46:53;;;;;;;10.35;4.60;;;;;;;;;;5089254;28;20029;-67